createdAt,value
2019-06-10T00:00:33.919Z,2.57
2019-06-10T00:03:05.626Z,2.10
2019-06-10T00:05:36.369Z,2.50
2019-06-10T00:08:07.090Z,2.27
2019-06-10T00:10:37.503Z,2.43
2019-06-10T00:13:08.547Z,2.10
2019-06-10T00:15:40.938Z,2.40
2019-06-10T00:18:33.416Z,2.40
2019-06-10T00:20:42.781Z,2.47
2019-06-10T00:23:13.419Z,2.27
2019-06-10T00:25:44.518Z,2.53
2019-06-10T00:28:15.433Z,2.60
2019-06-10T00:30:47.080Z,2.60
2019-06-10T00:33:17.694Z,2.20
2019-06-10T00:35:51.472Z,2.60
2019-06-10T00:38:23.528Z,2.63
2019-06-10T00:40:53.620Z,2.70
2019-06-10T00:43:24.954Z,2.40
2019-06-10T00:45:55.075Z,2.53
2019-06-10T00:48:29.115Z,2.63
2019-06-10T00:50:57.894Z,2.60
2019-06-10T00:53:28.518Z,2.27
2019-06-10T00:56:04.004Z,2.53
2019-06-10T00:58:33.763Z,3.07
2019-06-10T01:01:06.003Z,2.40
2019-06-10T01:03:36.299Z,2.37
2019-06-10T01:06:08.531Z,2.70
2019-06-10T01:08:40.593Z,2.50
2019-06-10T01:11:21.220Z,2.40
2019-06-10T01:13:44.600Z,2.70
2019-06-10T01:16:15.589Z,2.30
2019-06-10T01:18:50.333Z,2.10
2019-06-10T01:21:21.882Z,2.60
2019-06-10T01:23:53.981Z,2.20
2019-06-10T01:26:25.858Z,2.30
2019-06-10T01:28:56.291Z,2.00
2019-06-10T01:31:27.009Z,2.40
2019-06-10T01:33:58.062Z,2.53
2019-06-10T01:36:31.336Z,2.20
2019-06-10T01:39:02.152Z,2.33
2019-06-10T01:41:33.867Z,2.53
2019-06-10T01:44:06.452Z,2.60
2019-06-10T01:46:36.997Z,2.33
2019-06-10T01:49:07.022Z,2.47
2019-06-10T01:51:37.750Z,2.27
2019-06-10T01:54:10.005Z,2.47
2019-06-10T01:56:40.949Z,2.20
2019-06-10T01:59:15.080Z,2.27
2019-06-10T02:01:55.439Z,2.20
2019-06-10T02:04:25.908Z,2.27
2019-06-10T02:06:56.163Z,2.20
2019-06-10T02:09:26.951Z,2.30
2019-06-10T02:11:56.419Z,2.50
2019-06-10T02:14:26.718Z,2.33
2019-06-10T02:16:56.329Z,2.37
2019-06-10T02:19:25.860Z,2.83
2019-06-10T02:21:55.379Z,2.70
2019-06-10T02:24:24.609Z,1.93
2019-06-10T02:26:54.486Z,2.30
2019-06-10T02:29:24.006Z,2.10
2019-06-10T02:31:54.072Z,2.47
2019-06-10T02:34:27.530Z,2.37
2019-06-10T02:36:58.641Z,1.80
2019-06-10T02:39:35.158Z,2.23
2019-06-10T02:42:07.705Z,2.10
2019-06-10T02:44:38.057Z,2.03
2019-06-10T02:47:09.161Z,2.23
2019-06-10T02:49:55.638Z,2.60
2019-06-10T02:52:22.338Z,2.70
2019-06-10T02:54:53.430Z,2.03
2019-06-10T02:57:34.824Z,2.30
2019-06-10T02:59:58.006Z,2.63
2019-06-10T03:02:33.022Z,2.23
2019-06-10T03:05:04.540Z,2.27
2019-06-10T03:07:35.939Z,2.43
2019-06-10T03:10:07.076Z,2.43
2019-06-10T03:12:38.793Z,2.43
2019-06-10T03:15:09.807Z,2.00
2019-06-10T03:17:42.779Z,2.73
2019-06-10T03:20:13.861Z,2.20
2019-06-10T03:22:44.707Z,2.17
2019-06-10T03:25:16.339Z,2.30
2019-06-10T03:27:47.494Z,2.70
2019-06-10T03:30:26.179Z,2.80
2019-06-10T03:32:50.220Z,2.50
2019-06-10T03:35:23.864Z,2.40
2019-06-10T03:37:54.224Z,2.43
2019-06-10T03:40:27.762Z,2.60
2019-06-10T03:42:59.609Z,2.60
2019-06-10T03:45:29.593Z,2.43
2019-06-10T03:47:59.856Z,2.27
2019-06-10T03:50:32.499Z,2.20
2019-06-10T03:53:04.349Z,2.27
2019-06-10T03:55:35.173Z,2.47
2019-06-10T03:58:05.350Z,2.47
2019-06-10T04:00:37.058Z,2.67
2019-06-10T04:03:07.221Z,2.30
2019-06-10T04:05:39.256Z,2.50
2019-06-10T04:08:09.679Z,2.50
2019-06-10T04:10:40.120Z,2.43
2019-06-10T04:13:13.222Z,2.70
2019-06-10T04:15:43.048Z,2.77
2019-06-10T04:18:15.331Z,2.40
2019-06-10T04:20:45.054Z,2.80
2019-06-10T04:23:14.444Z,2.60
2019-06-10T04:25:44.417Z,2.70
2019-06-10T04:28:14.084Z,2.53
2019-06-10T04:30:43.387Z,2.60
2019-06-10T04:33:13.095Z,2.30
2019-06-10T04:35:43.094Z,2.80
2019-06-10T04:38:13.221Z,2.63
2019-06-10T04:40:43.261Z,2.40
2019-06-10T04:43:12.932Z,2.27
2019-06-10T04:45:44.672Z,2.20
2019-06-10T04:48:14.312Z,2.60
2019-06-10T04:50:46.417Z,2.47
2019-06-10T04:53:18.600Z,2.90
2019-06-10T04:55:49.217Z,2.50
2019-06-10T04:58:23.335Z,2.63
2019-06-10T05:00:52.351Z,2.70
2019-06-10T05:03:23.835Z,2.70
2019-06-10T05:05:53.267Z,2.40
2019-06-10T05:08:26.578Z,2.70
2019-06-10T05:10:56.192Z,2.37
2019-06-10T05:13:27.043Z,2.37
2019-06-10T05:15:58.497Z,2.60
2019-06-10T05:18:30.287Z,2.30
2019-06-10T05:21:02.774Z,2.67
2019-06-10T05:23:34.103Z,2.40
2019-06-10T05:26:04.505Z,2.30
2019-06-10T05:28:34.458Z,2.20
2019-06-10T05:31:05.343Z,2.20
2019-06-10T05:33:36.023Z,2.40
2019-06-10T05:36:06.283Z,2.60
2019-06-10T05:38:37.756Z,2.40
2019-06-10T05:41:09.059Z,2.67
2019-06-10T05:43:40.098Z,2.30
2019-06-10T05:46:13.140Z,2.47
2019-06-10T05:48:43.847Z,2.30
2019-06-10T05:51:13.460Z,2.00
2019-06-10T05:53:46.417Z,2.23
2019-06-10T05:56:15.566Z,2.60
2019-06-10T05:58:45.640Z,2.20
2019-06-10T06:01:16.292Z,2.27
2019-06-10T06:03:46.525Z,2.03
2019-06-10T06:06:17.997Z,1.63
2019-06-10T06:08:48.601Z,1.70
2019-06-10T06:11:19.097Z,1.60
2019-06-10T06:13:49.232Z,2.17
2019-06-10T06:16:19.813Z,1.90
2019-06-10T06:18:49.067Z,2.07
2019-06-10T06:21:26.771Z,2.13
2019-06-10T06:23:52.872Z,1.80
2019-06-10T06:26:23.952Z,2.10
2019-06-10T06:28:55.103Z,1.77
2019-06-10T06:31:26.200Z,1.43
2019-06-10T06:33:57.691Z,2.17
2019-06-10T06:36:28.680Z,2.10
2019-06-10T06:39:02.423Z,2.00
2019-06-10T06:41:37.589Z,1.90
2019-06-10T06:44:08.683Z,2.20
2019-06-10T06:46:42.898Z,2.03
2019-06-10T06:49:16.143Z,2.00
2019-06-10T06:51:54.748Z,1.80
2019-06-10T06:54:23.010Z,1.90
2019-06-10T06:56:53.738Z,2.23
2019-06-10T06:59:24.005Z,1.83
2019-06-10T07:01:59.904Z,1.80
2019-06-10T07:04:32.690Z,1.57
2019-06-10T07:07:04.350Z,1.60
2019-06-10T07:09:38.901Z,1.20
2019-06-10T07:12:13.204Z,1.30
2019-06-10T07:14:45.688Z,1.43
2019-06-10T07:17:17.328Z,1.30
2019-06-10T07:19:49.640Z,1.00
2019-06-10T07:22:23.243Z,1.23
2019-06-10T07:24:54.106Z,1.30
2019-06-10T07:27:30.180Z,1.20
2019-06-10T07:30:11.228Z,1.20
2019-06-10T07:32:37.340Z,1.33
2019-06-10T07:35:06.304Z,1.53
2019-06-10T07:37:39.482Z,1.17
2019-06-10T07:40:13.065Z,1.30
2019-06-10T07:42:45.432Z,1.33
2019-06-10T07:45:22.169Z,1.30
2019-06-10T07:47:54.225Z,1.17
2019-06-10T07:50:25.288Z,1.30
2019-06-10T07:52:58.359Z,1.50
2019-06-10T07:55:28.389Z,1.50
2019-06-10T07:57:59.741Z,1.57
2019-06-10T08:00:33.699Z,1.40
2019-06-10T08:03:04.383Z,1.40
2019-06-10T08:05:36.038Z,1.30
2019-06-10T08:08:08.334Z,1.10
2019-06-10T08:10:44.764Z,1.60
2019-06-10T08:13:14.222Z,1.33
2019-06-10T08:15:48.362Z,1.30
2019-06-10T08:18:22.507Z,1.40
2019-06-10T08:20:53.078Z,1.00
2019-06-10T08:23:23.882Z,1.13
2019-06-10T08:25:57.726Z,1.13
2019-06-10T08:28:27.138Z,1.20
2019-06-10T08:30:57.421Z,1.27
2019-06-10T08:33:27.041Z,1.40
2019-06-10T08:36:00.630Z,1.13
2019-06-10T08:38:29.644Z,1.37
2019-06-10T08:40:59.704Z,1.20
2019-06-10T08:43:32.882Z,1.30
2019-06-10T08:46:03.660Z,1.57
2019-06-10T08:48:34.338Z,1.50
2019-06-10T08:51:05.495Z,1.30
2019-06-10T08:53:37.398Z,1.40
2019-06-10T08:56:07.372Z,1.50
2019-06-10T08:58:38.515Z,1.50
2019-06-10T09:01:08.807Z,1.30
2019-06-10T09:03:40.189Z,1.60
2019-06-10T09:06:13.470Z,1.77
2019-06-10T09:08:46.337Z,1.37
2019-06-10T09:11:20.287Z,1.50
2019-06-10T09:13:52.997Z,1.50
2019-06-10T09:16:23.045Z,1.50
2019-06-10T09:18:55.510Z,1.40
2019-06-10T09:21:25.953Z,1.57
2019-06-10T09:24:00.028Z,1.30
2019-06-10T09:26:27.327Z,1.50
2019-06-10T09:28:57.941Z,1.83
2019-06-10T09:31:28.996Z,1.53
2019-06-10T09:34:00.045Z,1.73
2019-06-10T09:36:32.548Z,1.60
2019-06-10T09:39:07.680Z,2.00
2019-06-10T09:41:47.567Z,1.60
2019-06-10T09:44:14.479Z,1.40
2019-06-10T09:46:48.638Z,1.60
2019-06-10T09:49:18.631Z,2.00
2019-06-10T09:51:55.946Z,1.70
2019-06-10T09:54:24.927Z,2.00
2019-06-10T09:56:58.199Z,1.93
2019-06-10T09:59:28.888Z,1.73
2019-06-10T10:02:06.045Z,1.60
2019-06-10T10:04:37.562Z,1.77
2019-06-10T10:07:12.143Z,1.80
2019-06-10T10:09:48.542Z,1.77
2019-06-10T10:12:18.272Z,1.87
2019-06-10T10:14:51.409Z,1.77
2019-06-10T10:17:25.451Z,1.77
2019-06-10T10:19:58.591Z,2.00
2019-06-10T10:22:30.638Z,2.10
2019-06-10T10:25:03.673Z,1.97
2019-06-10T10:27:34.224Z,1.50
2019-06-10T10:30:06.076Z,2.57
2019-06-10T10:32:38.874Z,2.27
2019-06-10T10:35:12.631Z,2.00
2019-06-10T10:37:44.563Z,2.27
2019-06-10T10:40:19.091Z,2.07
2019-06-10T10:43:05.431Z,2.17
2019-06-10T10:45:25.311Z,1.97
2019-06-10T10:47:58.094Z,2.03
2019-06-10T10:50:29.842Z,2.50
2019-06-10T10:53:03.480Z,2.20
2019-06-10T10:55:36.725Z,2.17
2019-06-10T10:58:07.878Z,2.37
2019-06-10T11:00:51.536Z,2.40
2019-06-10T11:03:23.776Z,2.20
2019-06-10T11:06:00.750Z,2.10
2019-06-10T11:08:32.671Z,2.30
2019-06-10T11:11:05.693Z,2.03
2019-06-10T11:13:43.091Z,2.03
2019-06-10T11:16:15.130Z,1.83
2019-06-10T11:18:49.313Z,2.23
2019-06-10T11:21:22.825Z,1.90
2019-06-10T11:23:57.429Z,1.97
2019-06-10T11:26:27.197Z,1.70
2019-06-10T11:29:02.954Z,1.90
2019-06-10T11:31:33.616Z,1.70
2019-06-10T11:34:05.658Z,2.10
2019-06-10T11:36:36.117Z,2.00
2019-06-10T11:39:13.373Z,1.93
2019-06-10T11:41:48.110Z,2.20
2019-06-10T11:44:22.471Z,2.20
2019-06-10T11:46:59.511Z,1.83
2019-06-10T11:49:31.151Z,1.97
2019-06-10T11:52:03.629Z,2.60
2019-06-10T11:54:50.568Z,2.10
2019-06-10T11:57:09.635Z,2.37
2019-06-10T11:59:39.425Z,2.73
2019-06-10T12:02:13.221Z,2.03
2019-06-10T12:04:46.450Z,2.30
2019-06-10T12:07:19.276Z,2.10
2019-06-10T12:09:55.234Z,2.10
2019-06-10T12:12:27.711Z,2.40
2019-06-10T12:15:01.449Z,2.43
2019-06-10T12:17:46.962Z,2.40
2019-06-10T12:20:09.363Z,2.67
2019-06-10T12:22:42.323Z,2.20
2019-06-10T12:25:31.597Z,2.23
2019-06-10T12:27:45.620Z,2.20
2019-06-10T12:30:17.756Z,2.43
2019-06-10T12:32:54.469Z,2.93
2019-06-10T12:35:25.394Z,2.50
2019-06-10T12:38:01.122Z,2.33
2019-06-10T12:40:33.519Z,2.17
2019-06-10T12:43:06.854Z,2.30
2019-06-10T12:45:36.761Z,2.20
2019-06-10T12:48:07.931Z,2.10
2019-06-10T12:50:39.787Z,2.40
2019-06-10T12:53:09.147Z,2.53
2019-06-10T12:55:44.472Z,2.73
2019-06-10T12:58:15.753Z,2.90
2019-06-10T13:00:47.153Z,2.80
2019-06-10T13:03:18.060Z,3.00
2019-06-10T13:05:47.972Z,3.20
2019-06-10T13:08:23.820Z,2.80
2019-06-10T13:10:56.369Z,2.90
2019-06-10T13:13:28.757Z,2.90
2019-06-10T13:16:01.381Z,2.90
2019-06-10T13:18:33.969Z,3.53
2019-06-10T13:21:09.986Z,3.10
2019-06-10T13:23:37.413Z,2.87
2019-06-10T13:26:12.547Z,2.97
2019-06-10T13:28:40.077Z,3.10
2019-06-10T13:31:10.245Z,3.13
2019-06-10T13:33:48.050Z,2.77
2019-06-10T13:36:23.621Z,3.00
2019-06-10T13:38:53.256Z,2.90
2019-06-10T13:41:25.667Z,2.90
2019-06-10T13:43:57.915Z,2.90
2019-06-10T13:46:32.974Z,2.80
2019-06-10T13:49:06.852Z,3.20
2019-06-10T13:51:35.614Z,3.20
2019-06-10T13:54:10.583Z,3.10
2019-06-10T13:56:47.167Z,3.20
2019-06-10T13:59:14.902Z,3.70
2019-06-10T14:01:46.888Z,2.80
2019-06-10T14:04:21.819Z,3.40
2019-06-10T14:06:50.603Z,3.60
2019-06-10T14:09:19.718Z,3.47
2019-06-10T14:11:49.878Z,3.47
2019-06-10T14:14:23.050Z,3.23
2019-06-10T14:16:54.165Z,3.73
2019-06-10T14:19:25.658Z,3.60
2019-06-10T14:21:57.012Z,3.63
2019-06-10T14:24:28.965Z,3.93
2019-06-10T14:27:00.297Z,3.70
2019-06-10T14:29:34.556Z,3.23
2019-06-10T14:32:18.923Z,3.87
2019-06-10T14:34:49.236Z,3.40
2019-06-10T14:37:34.914Z,3.33
2019-06-10T14:39:54.404Z,4.10
2019-06-10T14:42:24.687Z,3.53
2019-06-10T14:44:57.224Z,4.43
2019-06-10T14:47:29.091Z,4.70
2019-06-10T14:49:59.914Z,7.60
2019-06-10T14:52:32.060Z,10.90
2019-06-10T14:55:05.206Z,8.80
2019-06-10T14:57:35.856Z,6.77
2019-06-10T15:00:09.792Z,6.90
2019-06-10T15:02:43.012Z,7.07
2019-06-10T15:05:16.133Z,9.37
2019-06-10T15:07:48.734Z,8.00
2019-06-10T15:10:20.174Z,9.83
2019-06-10T15:12:53.060Z,7.83
2019-06-10T15:15:25.377Z,6.33
2019-06-10T15:17:58.103Z,6.37
2019-06-10T15:20:32.837Z,5.13
2019-06-10T15:23:03.317Z,4.47
2019-06-10T15:25:49.178Z,3.40
2019-06-10T15:28:08.131Z,3.20
2019-06-10T15:30:39.116Z,3.80
2019-06-10T15:33:11.152Z,4.60
2019-06-10T15:35:42.838Z,5.30
2019-06-10T15:38:15.686Z,5.43
2019-06-10T15:40:49.189Z,6.53
2019-06-10T15:43:20.791Z,6.10
2019-06-10T15:45:53.183Z,6.50
2019-06-10T15:48:26.149Z,5.73
2019-06-10T15:50:56.680Z,5.93
2019-06-10T15:53:26.893Z,6.80
2019-06-10T15:56:17.030Z,6.73
2019-06-10T15:58:32.616Z,7.50
2019-06-10T16:01:05.178Z,7.80
2019-06-10T16:03:36.479Z,8.40
2019-06-10T16:06:07.133Z,9.17
2019-06-10T16:08:38.149Z,8.77
2019-06-10T16:11:08.589Z,8.07
2019-06-10T16:13:42.856Z,9.27
2019-06-10T16:16:14.715Z,8.80
2019-06-10T16:18:47.071Z,7.93
2019-06-10T16:21:17.438Z,8.77
2019-06-10T16:23:49.968Z,9.33
2019-06-10T16:26:25.247Z,9.33
2019-06-10T16:28:53.806Z,8.70
2019-06-10T16:31:27.044Z,8.90
2019-06-10T16:33:54.816Z,10.27
2019-06-10T16:36:26.318Z,7.10
2019-06-10T16:38:55.626Z,7.70
2019-06-10T16:41:27.787Z,7.90
2019-06-10T16:43:56.059Z,7.10
2019-06-10T16:46:29.115Z,6.93
2019-06-10T16:49:03.220Z,7.90
2019-06-10T16:51:34.520Z,6.67
2019-06-10T16:54:05.746Z,6.57
2019-06-10T16:56:36.294Z,6.93
2019-06-10T16:59:05.848Z,6.40
2019-06-10T17:01:35.800Z,6.47
2019-06-10T17:04:08.479Z,7.17
2019-06-10T17:06:42.150Z,10.03
2019-06-10T17:09:15.052Z,10.60
2019-06-10T17:11:46.853Z,20.40
2019-06-10T17:14:18.349Z,10.40
2019-06-10T17:16:49.598Z,9.00
2019-06-10T17:19:21.269Z,8.47
2019-06-10T17:21:52.806Z,8.60
2019-06-10T17:24:25.471Z,8.07
2019-06-10T17:26:57.059Z,8.00
2019-06-10T17:29:28.829Z,10.30
2019-06-10T17:32:02.711Z,11.77
2019-06-10T17:34:33.843Z,11.33
2019-06-10T17:37:04.717Z,13.47
2019-06-10T17:39:35.928Z,10.77
2019-06-10T17:42:07.527Z,11.63
2019-06-10T17:44:40.015Z,12.40
2019-06-10T17:47:13.273Z,11.80
2019-06-10T17:49:43.911Z,11.00
2019-06-10T17:52:16.290Z,10.17
2019-06-10T17:54:47.779Z,7.77
2019-06-10T17:57:19.046Z,9.23
2019-06-10T17:59:49.725Z,5.33
2019-06-10T18:02:24.637Z,5.73
2019-06-10T18:04:55.905Z,5.93
2019-06-10T18:07:27.649Z,6.50
2019-06-10T18:09:58.481Z,6.40
2019-06-10T18:12:33.965Z,6.93
2019-06-10T18:15:08.590Z,7.07
2019-06-10T18:17:38.514Z,8.80
2019-06-10T18:20:13.613Z,10.27
2019-06-10T18:22:43.206Z,11.10
2019-06-10T18:25:13.291Z,11.30
2019-06-10T18:27:44.850Z,11.70
2019-06-10T18:30:16.736Z,11.40
2019-06-10T18:32:47.385Z,10.80
2019-06-10T18:35:19.350Z,12.20
2019-06-10T18:37:52.936Z,12.37
2019-06-10T18:40:24.868Z,12.07
2019-06-10T18:42:56.318Z,12.87
2019-06-10T18:45:27.616Z,12.17
2019-06-10T18:47:57.468Z,12.40
2019-06-10T18:50:28.071Z,12.50
2019-06-10T18:53:00.700Z,13.23
2019-06-10T18:55:34.178Z,13.10
2019-06-10T18:58:05.871Z,13.63
2019-06-10T19:00:54.558Z,14.57
2019-06-10T19:03:13.278Z,13.00
2019-06-10T19:05:42.947Z,13.43
2019-06-10T19:08:13.534Z,13.90
2019-06-10T19:10:43.569Z,13.90
2019-06-10T19:13:13.344Z,14.40
2019-06-10T19:15:43.139Z,15.53
2019-06-10T19:18:15.604Z,15.03
2019-06-10T19:20:46.000Z,15.03
2019-06-10T19:23:16.496Z,15.30
2019-06-10T19:25:49.328Z,15.87
2019-06-10T19:28:18.756Z,16.63
2019-06-10T19:30:53.090Z,14.53
2019-06-10T19:33:23.550Z,17.10
2019-06-10T19:35:53.311Z,17.13
2019-06-10T19:38:23.262Z,17.60
2019-06-10T19:40:53.157Z,17.20
2019-06-10T19:43:23.621Z,18.93
2019-06-10T19:45:53.122Z,17.93
2019-06-10T19:48:22.634Z,18.70
2019-06-10T19:50:53.893Z,19.23
2019-06-10T19:53:23.568Z,18.10
2019-06-10T19:55:53.451Z,17.27
2019-06-10T19:58:23.319Z,15.73
2019-06-10T20:00:54.643Z,14.23
2019-06-10T20:03:24.001Z,12.83
2019-06-10T20:05:56.330Z,13.13
2019-06-10T20:08:29.744Z,11.77
2019-06-10T20:10:59.028Z,11.17
2019-06-10T20:13:32.307Z,11.13
2019-06-10T20:16:02.998Z,10.40
2019-06-10T20:18:33.177Z,10.53
2019-06-10T20:21:03.303Z,10.93
2019-06-10T20:23:33.315Z,11.60
2019-06-10T20:26:02.859Z,11.47
2019-06-10T20:28:33.060Z,10.47
2019-06-10T20:31:02.771Z,10.87
2019-06-10T20:33:38.634Z,11.80
2019-06-10T20:36:16.029Z,11.73
2019-06-10T20:38:40.070Z,12.77
2019-06-10T20:41:09.491Z,12.93
2019-06-10T20:43:39.227Z,13.20
2019-06-10T20:46:09.939Z,13.93
2019-06-10T20:48:41.438Z,14.40
2019-06-10T20:51:12.865Z,15.13
2019-06-10T20:53:45.992Z,15.20
2019-06-10T20:56:20.324Z,14.67
2019-06-10T20:58:49.749Z,15.83
2019-06-10T21:01:25.392Z,15.93
2019-06-10T21:03:57.493Z,15.20
2019-06-10T21:06:32.686Z,15.57
2019-06-10T21:09:08.383Z,16.70
2019-06-10T21:11:39.853Z,15.60
2019-06-10T21:14:12.305Z,16.30
2019-06-10T21:16:44.875Z,15.90
2019-06-10T21:19:15.277Z,16.27
2019-06-10T21:21:48.650Z,17.73
2019-06-10T21:24:18.096Z,16.43
2019-06-10T21:26:49.899Z,18.37
2019-06-10T21:29:21.459Z,18.53
2019-06-10T21:31:54.850Z,18.80
2019-06-10T21:34:26.301Z,19.23
2019-06-10T21:36:57.425Z,17.97
2019-06-10T21:39:27.820Z,18.13
2019-06-10T21:42:02.339Z,17.77
2019-06-10T21:44:34.039Z,19.23
2019-06-10T21:47:06.879Z,18.00
2019-06-10T21:49:39.296Z,18.90
2019-06-10T21:52:13.054Z,20.23
2019-06-10T21:54:46.766Z,21.43
2019-06-10T21:57:18.550Z,19.47
2019-06-10T21:59:49.662Z,19.07
2019-06-10T22:02:23.225Z,19.23
2019-06-10T22:04:55.664Z,20.90
2019-06-10T22:07:27.492Z,22.07
2019-06-10T22:09:59.322Z,22.13
2019-06-10T22:12:33.008Z,23.63
2019-06-10T22:15:04.518Z,22.40
2019-06-10T22:17:38.728Z,23.40
2019-06-10T22:20:12.461Z,23.73
2019-06-10T22:22:43.035Z,25.27
2019-06-10T22:25:13.722Z,24.67
2019-06-10T22:27:45.828Z,25.57
2019-06-10T22:30:17.307Z,24.60
2019-06-10T22:32:49.303Z,25.37
2019-06-10T22:35:22.940Z,28.00
2019-06-10T22:37:55.125Z,28.40
2019-06-10T22:40:25.844Z,30.60
2019-06-10T22:42:59.499Z,29.87
2019-06-10T22:45:32.910Z,30.47
2019-06-10T22:48:03.300Z,30.23
2019-06-10T22:50:34.706Z,30.13
2019-06-10T22:53:06.385Z,30.70
2019-06-10T22:55:36.849Z,32.70
2019-06-10T22:58:08.829Z,29.37
2019-06-10T23:00:40.258Z,32.20
2019-06-10T23:03:13.056Z,32.40
2019-06-10T23:05:44.161Z,32.90
2019-06-10T23:08:16.415Z,32.70
2019-06-10T23:10:51.200Z,33.10
2019-06-10T23:13:23.314Z,33.03
2019-06-10T23:15:57.967Z,30.60
2019-06-10T23:18:31.993Z,34.40
2019-06-10T23:21:04.604Z,33.77
2019-06-10T23:23:35.943Z,33.27
2019-06-10T23:26:07.411Z,34.80
2019-06-10T23:28:42.155Z,35.83
2019-06-10T23:31:12.897Z,37.93
2019-06-10T23:33:45.605Z,37.40
2019-06-10T23:36:17.657Z,36.90
2019-06-10T23:38:50.627Z,36.17
2019-06-10T23:41:23.835Z,35.40
2019-06-10T23:43:55.106Z,35.70
2019-06-10T23:46:26.695Z,38.43
2019-06-10T23:48:59.510Z,37.77
2019-06-10T23:51:33.240Z,37.40
2019-06-10T23:54:06.512Z,38.47
2019-06-10T23:56:37.769Z,37.80
2019-06-10T23:59:08.516Z,29.87
